LFBZ

Biarritz-Bayonne/Anglet

Airport
ICAO code
LFBZ
Summary
ICAO Region
EUR
ICAO Territory
Location

Biarritz-Bayonne/Anglet, Aquitaine,

Coordinates
43° 28' 6" N , 1° 31' 23" W
KCC
Cfb
Airport WX
Fog
Metar
Observation
LFBZ 171230Z AUTO 29016KT 9999 SCT020 SCT110 23/17 Q1013 TEMPO 27015G30KT 2000 TSRA SCT010 BKN020CB
Station
Biarritz
Date/Time
2022-08-17 12:30:00
Wind direction
290°
Wind speed
16 kts
Lowest cloud amount
scattered clouds
Temperature
23°C
Dew point
17°C
Humidity
69%
QNH
1013 hPa
Weather condition
n/a

Description

International airport serving Biarritz.

Climatology

Temperate Marine climate/Oceanic climate (Köppen climate classification Cfb). Moderately cool summer and comparatively warm winter with a temperature range of only 14°C. Prevailing south-westerly winds from the Atlantic Ocean.

Runways

Designator Length Width Surface Rops
9/27 2250 45 ASP Yes/Yes

Airport map

Aerial View

SKYbrary Partners:

Safety knowledge contributed by: